Terral, Oklahoma
Current Conditions -  °F | °C
As of 9:35 PM on Friday 19 Dec 2014 (Local Time) from K0F2 Reporting Station
Overcast Overcast  
Wind Chill: 43°   Ceiling: 1000
Heat Index: 43°   Visibility: 7mi
Dew Point: 41°   Wind: 0mph
Humidity: 91%   Direction: NA
Pressure: 30.22"   Gusts: NA
Location:  33.9°N, 97.94°W
Report Text: K0F2 200335Z AUTO 00000KT 7SM OVC010 06/05 A3022 RMK AO2 T00610048
Loading
Personal Weather Stations






























Interactive Weather Map New forecast layout! Learn more

10-Day Weather Forecast

Advertisements
Track Severe Weather on mobile